Time;durP1;ratioP1;P1;durP2;ratioP2;P2;SDS_P1;SDS_P2;PMS_P1;PMS_P2;Temp;Humidity;BMP_temperature;BMP_pressure;BME280_temperature;BME280_humidity;BME280_pressure;Samples;Min_cycle;Max_cycle;Signal;HPM_P1;HPM_P2
2021/12/26 00:01:00;;;;;;;10.27;5.20;;;;;;;13.69;82.51;99748.63;5002780;28;20076;-76
2021/12/26 00:03:31;;;;;;;21.38;5.93;;;;;;;13.69;83.08;99754.22;5000924;28;20030;-74
2021/12/26 00:06:06;;;;;;;11.82;5.25;;;;;;;13.73;83.15;99760.63;4999547;28;20033;-73
2021/12/26 00:08:35;;;;;;;14.25;5.30;;;;;;;13.65;83.16;99745.81;4999788;28;20037;-72
2021/12/26 00:11:02;;;;;;;20.60;5.53;;;;;;;13.67;83.19;99759.41;4999978;28;20038;-74
2021/12/26 00:13:28;;;;;;;17.08;5.43;;;;;;;13.73;83.58;99746.63;4999434;28;20030;-75
2021/12/26 00:15:53;;;;;;;11.02;5.70;;;;;;;13.78;83.70;99755.44;4998399;28;20034;-73
2021/12/26 00:18:25;;;;;;;13.75;4.82;;;;;;;13.75;84.38;99761.03;4996426;28;20113;-73
2021/12/26 00:20:56;;;;;;;15.13;6.57;;;;;;;13.79;84.54;99756.25;4996480;28;20383;-73
2021/12/26 00:23:25;;;;;;;19.58;9.98;;;;;;;13.76;85.12;99760.63;4996491;28;20022;-73
2021/12/26 00:25:54;;;;;;;19.00;6.07;;;;;;;13.83;85.01;99757.84;5013008;28;20125;-73
2021/12/26 00:28:25;;;;;;;13.50;5.43;;;;;;;13.70;85.19;99765.00;4996611;28;20480;-74
2021/12/26 00:30:58;;;;;;;15.15;4.68;;;;;;;13.74;85.22;99762.22;5014186;28;20087;-73
2021/12/26 00:33:27;;;;;;;11.00;5.63;;;;;;;13.72;85.35;99761.81;5014288;28;20491;-73
2021/12/26 00:36:00;;;;;;;19.83;5.50;;;;;;;13.72;85.19;99754.22;4997262;28;20030;-74
2021/12/26 00:38:29;;;;;;;15.90;5.63;;;;;;;13.53;84.80;99732.19;4997353;28;20030;-73
2021/12/26 00:40:56;;;;;;;17.80;5.20;;;;;;;13.69;85.17;99759.78;4996106;28;20040;-73
2021/12/26 00:43:26;;;;;;;10.30;4.40;;;;;;;13.69;84.35;99762.59;4996358;28;20083;-73
2021/12/26 00:45:54;;;;;;;11.27;4.28;;;;;;;13.64;84.66;99761.00;4999458;28;20447;-73
2021/12/26 00:48:19;;;;;;;12.40;4.32;;;;;;;13.68;84.14;99761.00;5017685;28;20029;-74
2021/12/26 00:50:45;;;;;;;9.75;4.20;;;;;;;13.71;83.22;99757.44;5000424;28;20539;-73
2021/12/26 00:53:11;;;;;;;13.88;3.83;;;;;;;13.73;82.64;99755.03;5000197;28;20034;-73
2021/12/26 00:55:40;;;;;;;12.90;4.85;;;;;;;13.74;83.44;99765.00;5000788;28;20040;-73
2021/12/26 00:58:09;;;;;;;17.15;5.15;;;;;;;13.74;83.60;99768.63;4999913;28;20050;-73
2021/12/26 01:00:42;;;;;;;9.70;3.65;;;;;;;13.71;84.04;99757.44;5000520;28;20425;-73
2021/12/26 01:03:12;;;;;;;15.75;5.05;;;;;;;13.76;83.88;99762.63;5000035;28;20038;-73
2021/12/26 01:05:40;;;;;;;12.40;3.65;;;;;;;13.70;83.85;99761.44;5000340;28;20030;-73
2021/12/26 01:08:13;;;;;;;10.43;4.20;;;;;;;13.69;84.23;99755.03;5017639;28;20088;-73
2021/12/26 01:10:52;;;;;;;14.98;3.50;;;;;;;13.67;83.48;99762.19;5018110;28;20029;-74
2021/12/26 01:13:30;;;;;;;11.93;3.95;;;;;;;13.71;82.91;99761.03;5017503;28;20081;-73
2021/12/26 01:15:59;;;;;;;10.48;3.47;;;;;;;13.72;83.00;99757.03;5018086;28;20030;-73
2021/12/26 01:18:31;;;;;;;11.20;3.65;;;;;;;13.82;83.23;99764.66;4999859;28;20095;-73
2021/12/26 01:21:06;;;;;;;15.10;4.82;;;;;;;13.73;83.89;99771.81;4999871;28;20094;-73
2021/12/26 01:23:32;;;;;;;13.93;5.13;;;;;;;13.71;84.03;99774.19;5000002;28;20053;-73
2021/12/26 01:26:01;;;;;;;13.70;4.47;;;;;;;13.71;84.20;99765.81;4999701;28;20022;-73
2021/12/26 01:28:30;;;;;;;17.35;4.30;;;;;;;13.76;84.38;99762.63;4999909;28;20108;-73
2021/12/26 01:31:02;;;;;;;21.17;5.22;;;;;;;13.75;85.12;99766.63;5017236;28;20108;-73
2021/12/26 01:33:27;;;;;;;17.98;4.95;;;;;;;13.75;84.78;99764.63;5000086;28;20040;-73
2021/12/26 01:35:56;;;;;;;16.20;4.28;;;;;;;13.74;84.94;99770.59;5000142;28;20026;-73
2021/12/26 01:38:22;;;;;;;17.40;4.82;;;;;;;13.71;84.90;99751.84;4999595;28;20113;-73
2021/12/26 01:40:57;;;;;;;15.43;4.82;;;;;;;13.70;85.58;99770.59;5000227;28;20117;-73
2021/12/26 01:43:30;;;;;;;10.52;3.40;;;;;;;13.67;85.71;99762.19;4999506;28;20026;-73
2021/12/26 01:45:58;;;;;;;12.27;4.03;;;;;;;13.65;85.76;99768.19;5017216;28;20060;-73
2021/12/26 01:48:24;;;;;;;19.20;4.85;;;;;;;13.69;85.31;99759.78;5017495;28;20037;-73
2021/12/26 01:50:52;;;;;;;20.38;5.60;;;;;;;13.59;86.05;99748.19;5001183;28;20097;-73
2021/12/26 01:53:20;;;;;;;15.57;3.65;;;;;;;13.55;86.28;99750.19;5000842;28;20532;-73
2021/12/26 01:55:46;;;;;;;15.30;3.75;;;;;;;13.63;86.97;99765.78;5000215;28;20030;-73
2021/12/26 01:58:18;;;;;;;13.82;4.03;;;;;;;13.60;86.86;99760.97;5016873;28;20073;-73
2021/12/26 02:00:51;;;;;;;11.55;4.50;;;;;;;13.60;87.00;99758.19;4999910;28;20026;-73
2021/12/26 02:03:23;;;;;;;12.40;4.53;;;;;;;13.58;87.65;99756.97;5000083;28;20033;-73
2021/12/26 02:05:54;;;;;;;21.10;5.10;;;;;;;13.36;88.12;99722.53;5018587;28;20056;-73
2021/12/26 02:08:22;;;;;;;17.05;4.18;;;;;;;13.52;88.03;99756.53;5002713;28;20033;-73
2021/12/26 02:10:54;;;;;;;22.13;5.85;;;;;;;13.48;87.97;99763.34;5001241;28;20030;-73
2021/12/26 02:13:22;;;;;;;10.25;3.95;;;;;;;13.48;88.98;99768.94;4998973;28;20034;-72
2021/12/26 02:15:51;;;;;;;15.55;3.55;;;;;;;13.47;88.75;99765.31;4999431;28;20477;-73
2021/12/26 02:18:19;;;;;;;23.92;4.32;;;;;;;13.41;89.12;99764.09;4998816;28;20029;-73
2021/12/26 02:24:23;;;;;;;14.85;3.60;;;;;;;13.38;88.35;99761.28;4955759;29;20032;-73
2021/12/26 02:29:36;;;;;;;14.13;4.55;;;;;;;13.36;88.42;99750.50;5003699;28;20125;-73
2021/12/26 02:32:04;;;;;;;12.27;4.03;;;;;;;13.38;88.45;99762.09;5016091;28;20022;-72
2021/12/26 02:34:32;;;;;;;9.68;3.80;;;;;;;13.33;89.36;99754.88;4998797;28;20037;-73
2021/12/26 02:37:04;;;;;;;14.07;4.60;;;;;;;13.36;89.48;99758.88;5014821;28;20037;-73
2021/12/26 02:39:33;;;;;;;13.77;3.88;;;;;;;13.34;89.97;99750.09;4998375;28;20449;-73
2021/12/26 02:42:02;;;;;;;15.27;3.40;;;;;;;13.36;90.07;99740.09;4998453;28;20034;-73
2021/12/26 02:44:30;;;;;;;17.40;4.90;;;;;;;13.36;89.98;99736.50;4998338;28;20116;-73
2021/12/26 02:46:59;;;;;;;12.20;3.78;;;;;;;13.37;89.83;99738.13;4998259;28;20030;-73
2021/12/26 02:49:31;;;;;;;8.05;2.95;;;;;;;13.33;90.17;99740.91;4998190;28;20033;-73
2021/12/26 02:51:56;;;;;;;12.35;3.38;;;;;;;13.25;90.02;99735.66;4997917;28;20029;-73
2021/12/26 02:54:24;;;;;;;14.75;3.83;;;;;;;13.31;89.72;99742.47;4998594;28;20034;-75
2021/12/26 02:56:57;;;;;;;14.32;3.60;;;;;;;13.30;89.53;99736.09;4997816;28;20033;-75
2021/12/26 02:59:33;;;;;;;14.15;3.17;;;;;;;13.29;89.55;99742.09;5016449;28;20047;-73
2021/12/26 03:02:10;;;;;;;16.20;3.85;;;;;;;13.24;89.63;99731.28;5035445;28;20120;-75
2021/12/26 03:04:39;;;;;;;10.18;3.28;;;;;;;13.26;89.99;99735.31;5018131;28;20034;-73
2021/12/26 03:07:07;;;;;;;9.98;3.50;;;;;;;13.21;89.93;99726.44;5017112;28;20120;-73
2021/12/26 03:09:44;;;;;;;12.52;3.83;;;;;;;13.26;90.30;99737.25;5034964;28;20033;-75
2021/12/26 03:12:14;;;;;;;13.85;3.45;;;;;;;13.23;90.50;99736.06;5017627;28;20488;-75
2021/12/26 03:14:41;;;;;;;13.07;4.18;;;;;;;13.32;90.64;99746.91;5017282;28;20083;-75
2021/12/26 03:17:07;;;;;;;13.20;3.72;;;;;;;13.34;91.33;99744.50;5017300;28;20064;-75
2021/12/26 03:19:35;;;;;;;11.48;2.95;;;;;;;13.36;91.98;99747.69;5017894;28;20104;-73
2021/12/26 03:22:00;;;;;;;17.05;3.55;;;;;;;13.34;91.87;99742.50;5035995;28;20029;-72
2021/12/26 03:24:32;;;;;;;9.55;4.22;;;;;;;13.38;91.40;99742.53;5035448;28;20483;-73
2021/12/26 03:27:04;;;;;;;13.50;4.30;;;;;;;13.39;90.83;99746.91;5017423;28;20499;-73
2021/12/26 03:32:16;;;;;;;14.73;4.15;;;;;;;13.35;91.58;99748.88;5035252;28;20140;-72
2021/12/26 03:34:47;;;;;;;13.48;3.17;;;;;;;13.32;91.22;99749.69;5017075;28;20025;-73
2021/12/26 03:37:15;;;;;;;9.10;3.03;;;;;;;13.31;91.49;99748.06;5034935;28;20056;-73
2021/12/26 03:39:44;;;;;;;15.90;2.90;;;;;;;13.28;91.82;99737.69;5016857;28;20059;-73
2021/12/26 03:42:11;;;;;;;9.65;2.72;;;;;;;13.22;92.11;99740.06;5017131;28;20124;-73
2021/12/26 03:44:36;;;;;;;14.18;3.00;;;;;;;13.27;91.92;99741.69;5016810;28;20060;-73
2021/12/26 03:47:06;;;;;;;21.30;4.82;;;;;;;13.21;92.11;99744.06;5016677;28;20033;-72
2021/12/26 03:49:34;;;;;;;12.48;2.67;;;;;;;13.23;92.32;99749.25;5016726;28;20025;-73
2021/12/26 03:52:03;;;;;;;12.48;2.65;;;;;;;13.25;91.76;99749.63;5016894;28;20072;-73
2021/12/26 03:54:28;;;;;;;17.70;3.33;;;;;;;13.28;91.95;99748.88;5016305;28;20052;-72
2021/12/26 03:56:56;;;;;;;12.88;3.05;;;;;;;13.27;91.93;99762.03;5016615;28;20476;-73
2021/12/26 03:59:27;;;;;;;10.98;2.72;;;;;;;13.31;91.98;99753.66;4997207;28;20075;-73
2021/12/26 04:01:58;;;;;;;6.35;2.30;;;;;;;13.30;91.93;99752.84;5014494;28;20026;-73
2021/12/26 04:04:31;;;;;;;6.85;3.00;;;;;;;13.30;92.26;99758.44;4996868;28;20030;-73
2021/12/26 04:06:57;;;;;;;20.63;4.80;;;;;;;13.29;92.17;99761.63;4996845;28;20030;-73
2021/12/26 04:09:28;;;;;;;9.98;3.85;;;;;;;13.30;92.31;99752.84;4996740;28;20040;-73
2021/12/26 04:11:54;;;;;;;9.57;2.85;;;;;;;13.33;92.37;99762.47;5014629;28;20105;-73
2021/12/26 04:14:20;;;;;;;8.32;4.40;;;;;;;13.27;92.70;99764.03;4996738;28;20176;-73
2021/12/26 04:16:48;;;;;;;17.40;3.10;;;;;;;13.23;93.47;99760.41;4997374;28;20115;-73
2021/12/26 04:19:15;;;;;;;14.25;4.53;;;;;;;13.27;93.94;99770.41;4995782;28;20081;-73
2021/12/26 04:21:43;;;;;;;10.20;2.72;;;;;;;13.25;93.85;99761.59;4996584;28;20026;-73
2021/12/26 04:24:12;;;;;;;12.18;3.45;;;;;;;13.29;93.92;99770.81;4997139;28;20030;-73
2021/12/26 04:26:43;;;;;;;14.02;2.75;;;;;;;13.21;94.13;99776.72;4996650;28;20034;-73
2021/12/26 04:29:12;;;;;;;13.60;3.17;;;;;;;13.20;93.96;99775.91;4997307;28;20512;-72
2021/12/26 04:31:40;;;;;;;11.45;3.67;;;;;;;13.11;94.28;99767.91;5013850;28;20458;-73
2021/12/26 04:34:07;;;;;;;13.63;3.47;;;;;;;13.21;94.11;99771.13;4996465;28;20033;-72
2021/12/26 04:36:36;;;;;;;14.48;3.33;;;;;;;13.17;93.87;99765.53;4997071;28;20034;-72
2021/12/26 04:39:05;;;;;;;10.02;3.03;;;;;;;13.15;94.29;99767.09;4996366;28;20033;-73
2021/12/26 04:41:33;;;;;;;5.18;2.30;;;;;;;13.20;94.03;99761.16;4997065;28;20034;-72
2021/12/26 04:44:02;;;;;;;10.38;3.03;;;;;;;13.21;94.43;99768.34;4998309;28;20117;-73
2021/12/26 04:46:33;;;;;;;11.40;2.35;;;;;;;13.21;94.13;99779.50;4998146;28;20033;-73
2021/12/26 04:49:01;;;;;;;25.88;3.83;;;;;;;13.15;94.35;99778.28;4992216;28;20443;-73
2021/12/26 04:51:30;;;;;;;8.77;2.75;;;;;;;13.14;94.57;99773.88;5014225;28;20033;-76
2021/12/26 04:54:00;;;;;;;10.50;3.17;;;;;;;13.17;94.66;99775.91;4996109;28;20461;-73
2021/12/26 04:56:32;;;;;;;13.85;3.80;;;;;;;13.17;94.63;99784.28;4996269;28;20030;-72
2021/12/26 04:59:00;;;;;;;11.30;3.35;;;;;;;13.14;94.77;99777.47;4995325;28;20050;-72
2021/12/26 05:01:33;;;;;;;10.80;4.00;;;;;;;13.16;94.90;99779.91;4996426;28;20088;-73
2021/12/26 05:04:02;;;;;;;10.88;2.95;;;;;;;13.14;94.44;99788.66;4996833;28;20100;-72
2021/12/26 05:06:28;;;;;;;10.63;3.10;;;;;;;13.17;94.44;99785.09;4996742;28;20420;-72
2021/12/26 05:09:00;;;;;;;14.77;3.55;;;;;;;13.16;94.65;99785.50;4996151;28;20464;-72
2021/12/26 05:11:33;;;;;;;8.77;3.45;;;;;;;13.11;94.92;99784.66;4996451;28;20389;-73
2021/12/26 05:14:07;;;;;;;14.88;4.63;;;;;;;13.10;95.70;99788.66;4996634;28;20060;-73
2021/12/26 05:16:38;;;;;;;12.73;4.47;;;;;;;13.15;96.43;99790.25;4996304;28;20022;-73
2021/12/26 05:19:07;;;;;;;9.82;3.33;;;;;;;13.03;96.85;99777.41;4996130;28;20125;-73
2021/12/26 05:21:36;;;;;;;22.88;4.40;;;;;;;13.11;97.03;99789.44;4996688;28;20476;-73
2021/12/26 05:24:04;;;;;;;10.95;3.78;;;;;;;13.14;96.64;99785.88;4996328;28;20088;-73
2021/12/26 05:26:35;;;;;;;12.50;4.05;;;;;;;13.11;96.84;99795.03;4995978;28;20072;-73
2021/12/26 05:29:01;;;;;;;9.93;3.53;;;;;;;13.03;96.53;99787.78;4996258;28;20490;-73
2021/12/26 05:31:32;;;;;;;10.98;3.88;;;;;;;13.04;97.42;99789.38;4998044;28;20069;-73
2021/12/26 05:34:00;;;;;;;6.90;2.83;;;;;;;13.05;97.36;99786.22;4999746;28;20028;-72
2021/12/26 05:36:26;;;;;;;17.42;4.50;;;;;;;12.92;97.11;99762.59;4999868;28;20022;-73
2021/12/26 05:38:57;;;;;;;18.50;3.65;;;;;;;13.06;96.90;99792.59;4999404;28;20033;-74
2021/12/26 05:41:23;;;;;;;16.27;3.92;;;;;;;13.11;96.88;99795.84;4999491;28;20026;-74
2021/12/26 05:43:51;;;;;;;9.63;3.03;;;;;;;13.12;96.99;99796.63;4999359;28;20029;-74
2021/12/26 05:46:23;;;;;;;14.68;3.63;;;;;;;13.12;96.50;99793.84;4999698;28;20065;-73
2021/12/26 05:48:51;;;;;;;13.70;4.20;;;;;;;13.06;97.23;99798.19;4999361;28;20032;-73
2021/12/26 05:51:17;;;;;;;17.83;3.78;;;;;;;13.07;97.43;99799.78;4999897;28;20053;-73
2021/12/26 05:53:53;;;;;;;12.82;3.60;;;;;;;13.04;97.42;99800.56;4999531;28;20452;-74
2021/12/26 05:56:22;;;;;;;13.18;3.67;;;;;;;13.07;97.35;99791.41;4999111;28;20030;-74
2021/12/26 05:58:50;;;;;;;6.82;3.80;;;;;;;13.09;97.22;99792.63;4999160;28;20054;-74
2021/12/26 06:01:18;;;;;;;19.30;4.63;;;;;;;13.10;97.35;99799.81;4999326;28;20120;-74
2021/12/26 06:03:46;;;;;;;9.15;2.88;;;;;;;13.09;97.16;99797.41;4999413;28;20036;-74
2021/12/26 06:06:14;;;;;;;14.63;5.22;;;;;;;13.10;96.77;99799.00;4999740;28;20547;-74
2021/12/26 06:08:47;;;;;;;11.65;3.58;;;;;;;13.16;96.52;99791.88;4999022;28;20033;-74
2021/12/26 06:11:12;;;;;;;12.37;3.67;;;;;;;13.13;96.44;99803.03;4999523;28;20120;-73
2021/12/26 06:13:38;;;;;;;16.25;3.92;;;;;;;13.08;97.19;99802.19;4999644;28;20359;-74
2021/12/26 06:16:06;;;;;;;6.90;3.97;;;;;;;13.03;97.45;99807.34;4998775;28;20460;-73
2021/12/26 06:18:34;;;;;;;6.80;3.30;;;;;;;13.09;97.91;99800.19;4998825;28;20033;-74
2021/12/26 06:21:20;;;;;;;18.25;3.72;;;;;;;13.03;98.04;99799.75;4999216;28;20037;-74
2021/12/26 06:23:52;;;;;;;11.52;2.90;;;;;;;13.00;98.42;99797.75;4999116;28;20038;-73
2021/12/26 06:26:30;;;;;;;12.40;3.53;;;;;;;12.99;98.99;99793.34;4999274;28;20029;-74
2021/12/26 06:29:05;;;;;;;12.88;4.00;;;;;;;12.97;99.67;99806.09;4998517;28;20033;-74
2021/12/26 06:31:34;;;;;;;11.77;4.03;;;;;;;12.92;99.95;99798.88;4998326;28;20029;-74
2021/12/26 06:34:00;;;;;;;10.88;3.85;;;;;;;12.91;99.88;99797.28;4998347;28;20029;-74
2021/12/26 06:36:29;;;;;;;9.63;3.70;;;;;;;12.95;99.87;99808.50;4998788;28;20048;-74
2021/12/26 06:39:00;;;;;;;14.95;4.70;;;;;;;12.98;100.00;99805.72;4998900;28;20092;-73
2021/12/26 06:41:26;;;;;;;14.32;4.45;;;;;;;12.96;100.00;99799.72;4998313;28;20022;-74
2021/12/26 06:43:55;;;;;;;16.20;3.70;;;;;;;12.98;100.00;99808.50;4997900;28;20022;-73
2021/12/26 06:46:26;;;;;;;15.48;5.05;;;;;;;13.03;100.00;99812.91;4998408;28;20034;-74
2021/12/26 06:48:58;;;;;;;15.60;4.82;;;;;;;12.98;100.00;99808.50;5016692;28;20106;-73
2021/12/26 06:51:26;;;;;;;24.65;4.70;;;;;;;13.00;100.00;99810.91;4998976;28;20040;-74
2021/12/26 06:53:57;;;;;;;23.75;4.80;;;;;;;13.02;100.00;99819.69;5015997;28;20049;-74
2021/12/26 06:56:23;;;;;;;14.57;5.03;;;;;;;13.10;100.00;99822.16;4998363;28;20481;-73
2021/12/26 06:58:49;;;;;;;12.98;5.32;;;;;;;13.05;100.00;99814.16;4997701;28;20061;-73
2021/12/26 07:01:20;;;;;;;12.27;4.53;;;;;;;13.02;100.00;99812.13;4997566;28;20037;-73
2021/12/26 07:03:53;;;;;;;18.48;6.95;;;;;;;13.00;100.00;99811.72;4998473;28;20030;-74
2021/12/26 07:06:25;;;;;;;16.73;4.20;;;;;;;13.01;100.00;99818.91;4998420;28;20364;-73
2021/12/26 07:08:54;;;;;;;15.30;4.28;;;;;;;13.02;100.00;99814.91;4998012;28;20451;-73
2021/12/26 07:11:25;;;;;;;13.63;4.80;;;;;;;13.01;100.00;99824.50;4997661;28;20049;-73
2021/12/26 07:13:51;;;;;;;13.18;5.32;;;;;;;13.03;100.00;99822.09;4997304;28;20033;-74
2021/12/26 07:16:19;;;;;;;12.82;4.55;;;;;;;13.05;100.00;99830.91;4997901;28;20022;-73
2021/12/26 07:18:44;;;;;;;16.50;4.38;;;;;;;13.03;100.00;99827.69;5004732;28;20148;-78
2021/12/26 07:21:10;;;;;;;15.80;4.40;;;;;;;12.98;100.00;99825.25;5039051;28;20010;-76
2021/12/26 07:23:36;;;;;;;22.10;5.88;;;;;;;12.99;100.00;99829.66;5032388;28;20041;-79
2021/12/26 07:26:06;;;;;;;12.55;7.47;;;;;;;13.05;100.00;99836.50;5012893;28;20414;-78
2021/12/26 07:28:36;;;;;;;14.35;6.85;;;;;;;13.02;100.00;99833.66;5019472;28;20106;-79
2021/12/26 07:31:02;;;;;;;12.88;5.90;;;;;;;13.06;100.00;99837.28;5020152;28;20030;-77
2021/12/26 07:33:31;;;;;;;14.63;5.20;;;;;;;13.01;100.00;99840.44;5010320;28;20037;-79
2021/12/26 07:35:56;;;;;;;11.32;5.15;;;;;;;13.03;100.00;99843.66;5014084;28;20045;-78
2021/12/26 07:38:22;;;;;;;20.88;5.20;;;;;;;13.01;100.00;99844.03;5016274;28;20489;-78
2021/12/26 07:40:53;;;;;;;15.63;5.15;;;;;;;13.00;100.00;99845.22;5014451;28;20484;-79
2021/12/26 07:43:19;;;;;;;20.05;6.88;;;;;;;13.07;100.00;99850.88;5015342;28;20496;-77
2021/12/26 07:45:45;;;;;;;11.48;5.30;;;;;;;13.05;100.00;99842.09;5010174;28;20014;-81
2021/12/26 07:53:20;;;;;;;12.48;5.35;;;;;;;12.97;100.00;99840.41;4993111;28;20075;-72
2021/12/26 07:55:51;;;;;;;15.75;6.30;;;;;;;13.03;100.00;99849.22;4977590;28;20030;-73
2021/12/26 07:58:20;;;;;;;14.98;5.63;;;;;;;12.97;100.00;99840.41;4977693;28;20084;-72
2021/12/26 08:00:46;;;;;;;17.90;4.88;;;;;;;12.99;100.00;99843.59;4977456;28;20030;-71
2021/12/26 08:03:17;;;;;;;12.73;6.15;;;;;;;12.96;100.00;99849.19;4977225;28;20069;-72
2021/12/26 08:05:46;;;;;;;20.70;6.68;;;;;;;13.00;100.00;99838.84;4977388;28;20109;-72
2021/12/26 08:08:17;;;;;;;13.27;4.68;;;;;;;12.93;100.00;99845.16;4977252;28;20089;-72
2021/12/26 08:10:46;;;;;;;15.27;6.32;;;;;;;12.98;100.00;99849.59;4977301;28;20034;-72
2021/12/26 08:13:17;;;;;;;12.57;4.72;;;;;;;13.03;100.00;99846.44;4977467;28;20034;-72
2021/12/26 08:15:46;;;;;;;19.15;6.15;;;;;;;13.05;100.00;99844.06;4960535;28;20121;-72
2021/12/26 08:18:14;;;;;;;13.45;4.95;;;;;;;13.04;100.00;99840.44;4958087;28;20026;-72
2021/12/26 08:20:44;;;;;;;14.75;4.97;;;;;;;13.11;100.00;99851.69;4957715;28;20066;-73
2021/12/26 08:23:12;;;;;;;16.15;5.65;;;;;;;13.20;100.00;99842.97;4958035;28;20027;-73
2021/12/26 08:25:38;;;;;;;13.57;5.82;;;;;;;13.19;100.00;99854.53;4957731;28;20123;-73
2021/12/26 08:28:06;;;;;;;18.63;7.35;;;;;;;13.20;100.00;99854.13;4957940;28;20065;-72
2021/12/26 08:30:37;;;;;;;13.70;5.47;;;;;;;13.32;100.00;99856.66;4976217;28;20042;-72
2021/12/26 08:33:08;;;;;;;15.48;5.50;;;;;;;13.31;100.00;99857.84;4977123;28;20121;-72
2021/12/26 08:35:38;;;;;;;13.57;4.82;;;;;;;13.29;100.00;99865.00;4977455;28;20088;-72
2021/12/26 08:38:09;;;;;;;17.42;5.85;;;;;;;13.34;100.00;99870.22;4972355;28;20038;-72
2021/12/26 08:40:40;;;;;;;15.00;5.88;;;;;;;13.44;99.85;99875.09;4977437;28;20061;-72
2021/12/26 08:43:06;;;;;;;13.63;5.38;;;;;;;13.50;99.21;99873.53;4971945;28;20073;-73
2021/12/26 08:45:32;;;;;;;17.98;5.60;;;;;;;13.52;98.59;99876.72;4963894;28;20117;-73
2021/12/26 08:47:58;;;;;;;16.25;4.95;;;;;;;13.55;98.66;99881.53;4968550;28;20146;-72
2021/12/26 08:50:28;;;;;;;18.55;5.70;;;;;;;13.61;98.44;99882.78;4965653;28;20501;-72
2021/12/26 08:52:55;;;;;;;14.98;7.25;;;;;;;13.62;97.40;99876.00;4976138;28;20051;-72
2021/12/26 08:55:26;;;;;;;17.08;6.57;;;;;;;13.73;96.76;99883.63;4976708;28;20031;-72
2021/12/26 08:57:53;;;;;;;15.07;5.07;;;;;;;13.78;95.69;99878.47;4976635;28;20045;-72
2021/12/26 09:00:23;;;;;;;14.75;5.03;;;;;;;13.88;94.27;99890.91;4977236;28;20369;-72
2021/12/26 09:02:55;;;;;;;12.95;4.85;;;;;;;13.98;92.33;99881.75;4977216;28;20381;-72
2021/12/26 09:05:24;;;;;;;11.95;4.85;;;;;;;14.20;90.87;99881.84;4976792;28;20036;-71
2021/12/26 09:07:51;;;;;;;16.95;4.15;;;;;;;14.06;89.74;99882.59;4963192;28;20034;-72
2021/12/26 09:10:17;;;;;;;15.02;4.00;;;;;;;14.07;89.81;99882.22;4961704;28;20394;-71
2021/12/26 09:12:49;;;;;;;12.05;5.18;;;;;;;14.12;89.84;99870.63;4961364;28;20069;-71
2021/12/26 09:15:37;;;;;;;10.07;4.15;;;;;;;14.16;88.79;99868.63;4961121;28;20030;-72
2021/12/26 09:18:04;;;;;;;14.60;3.90;;;;;;;14.18;88.12;99873.84;4961080;28;20045;-72
2021/12/26 09:20:33;;;;;;;7.43;4.63;;;;;;;14.13;87.70;99872.22;4961518;28;20031;-71
2021/12/26 09:23:06;;;;;;;16.25;3.92;;;;;;;14.16;87.51;99865.84;4960668;28;20045;-71
2021/12/26 09:25:35;;;;;;;;;;;;;;;14.29;86.05;99874.69;4961608;28;20037;-72
2021/12/26 09:28:00;;;;;;;11.93;3.90;;;;;;;14.34;84.77;99876.31;4960910;28;19910;-72
2021/12/26 09:30:27;;;;;;;12.75;3.90;;;;;;;14.69;82.91;99864.38;4961204;28;20114;-72
2021/12/26 09:32:58;;;;;;;9.82;3.95;;;;;;;15.13;80.50;99875.22;4961358;28;20362;-72
2021/12/26 09:35:27;;;;;;;15.68;5.28;;;;;;;15.54;79.18;99857.91;4961235;28;20545;-72
2021/12/26 09:37:53;;;;;;;12.75;3.83;;;;;;;15.38;78.68;99860.34;4960924;28;20034;-72
2021/12/26 09:40:19;;;;;;;7.97;3.78;;;;;;;15.51;77.86;99858.75;4960674;28;20393;-72
2021/12/26 09:42:46;;;;;;;11.30;3.75;;;;;;;15.65;77.27;99853.09;4960647;28;20065;-72
2021/12/26 09:45:13;;;;;;;12.30;4.43;;;;;;;15.83;76.46;99847.47;4960604;28;20031;-72
2021/12/26 09:47:45;;;;;;;17.85;5.78;;;;;;;15.77;75.85;99851.09;4961123;28;20457;-72
2021/12/26 09:50:42;;;;;;;9.52;3.63;;;;;;;15.58;76.02;99841.88;4960855;28;20371;-72
2021/12/26 09:53:11;;;;;;;17.30;4.90;;;;;;;15.45;76.23;99827.50;4950311;28;20051;-73
2021/12/26 09:55:39;;;;;;;10.13;4.00;;;;;;;15.64;75.55;99817.88;4942726;29;20028;-72
2021/12/26 09:58:10;;;;;;;8.23;3.38;;;;;;;15.74;74.98;99832.25;4942655;29;20031;-73
2021/12/26 10:00:42;;;;;;;8.23;4.03;;;;;;;15.62;74.68;99813.84;4942023;29;20090;-71
2021/12/26 10:03:10;;;;;;;13.82;3.67;;;;;;;15.53;75.17;99808.66;4941760;29;20483;-72
2021/12/26 10:06:11;;;;;;;10.60;3.33;;;;;;;15.40;75.46;99813.91;4941193;29;20028;-73
2021/12/26 10:09:10;;;;;;;11.02;3.83;;;;;;;15.42;74.99;99810.69;4941134;29;20122;-71
2021/12/26 10:11:51;;;;;;;18.42;3.92;;;;;;;15.28;73.95;99802.31;4907057;29;20514;-73
2021/12/26 10:14:27;;;;;;;9.73;3.40;;;;;;;15.11;74.25;99801.94;4941726;29;20082;-72
2021/12/26 10:17:07;;;;;;;12.73;3.60;;;;;;;15.08;74.33;99802.78;4940403;29;20526;-72
2021/12/26 10:19:39;;;;;;;10.88;3.50;;;;;;;15.07;74.80;99805.94;4958415;29;20042;-73
2021/12/26 10:22:06;;;;;;;16.17;5.05;;;;;;;15.40;73.88;99807.50;4940747;29;20038;-72
2021/12/26 10:24:40;;;;;;;13.30;4.47;;;;;;;15.77;72.42;99797.81;4941534;29;20039;-72
2021/12/26 10:27:13;;;;;;;13.27;3.72;;;;;;;15.78;71.88;99807.81;4958235;29;20029;-72
2021/12/26 10:29:49;;;;;;;10.25;3.85;;;;;;;15.96;71.73;99798.09;4940540;29;20035;-71
2021/12/26 10:32:24;;;;;;;8.35;4.20;;;;;;;16.26;71.33;99795.94;4940465;29;20035;-72
2021/12/26 10:35:00;;;;;;;10.43;3.33;;;;;;;16.65;69.65;99810.47;4941037;29;20058;-72
2021/12/26 10:37:29;;;;;;;5.40;3.00;;;;;;;16.93;67.36;99808.66;4940513;29;20031;-72
2021/12/26 10:40:14;;;;;;;9.90;3.25;;;;;;;17.36;65.33;99799.81;4940399;29;20042;-72
2021/12/26 10:42:55;;;;;;;10.68;4.60;;;;;;;17.88;63.90;99791.19;4958085;29;20147;-73
2021/12/26 10:45:31;;;;;;;10.93;3.35;;;;;;;17.76;62.54;99773.66;4940393;29;20035;-72
2021/12/26 10:48:05;;;;;;;11.05;3.00;;;;;;;18.02;62.56;99793.81;4940346;29;20020;-73
2021/12/26 10:50:37;;;;;;;7.88;3.75;;;;;;;18.28;61.90;99781.00;4957841;29;20043;-73
2021/12/26 10:53:12;;;;;;;5.07;3.47;;;;;;;18.32;60.95;99785.34;4939281;29;20055;-73
2021/12/26 10:55:43;;;;;;;9.20;3.50;;;;;;;17.74;62.99;99792.97;4939441;29;20027;-72
2021/12/26 10:58:12;;;;;;;14.02;4.47;;;;;;;17.59;63.84;99782.28;4940059;29;20492;-73
2021/12/26 11:00:43;;;;;;;12.63;5.20;;;;;;;16.81;65.73;99779.06;4939996;29;20046;-73
2021/12/26 11:03:21;;;;;;;6.53;3.10;;;;;;;16.58;66.31;99770.44;4939997;29;20031;-73
2021/12/26 11:06:08;;;;;;;4.88;3.40;;;;;;;16.45;66.32;99775.72;4940820;29;20062;-73
2021/12/26 11:08:44;;;;;;;8.07;3.58;;;;;;;16.31;67.14;99761.81;4957372;29;20114;-73
2021/12/26 11:11:25;;;;;;;5.72;3.38;;;;;;;16.08;68.74;99757.53;4939875;29;20031;-73
2021/12/26 11:14:00;;;;;;;12.50;4.47;;;;;;;15.90;69.72;99751.22;4988662;28;20039;-74
2021/12/26 11:16:40;;;;;;;13.40;4.18;;;;;;;15.74;70.57;99754.53;4957478;28;20102;-73
2021/12/26 11:19:08;;;;;;;6.95;4.18;;;;;;;15.71;71.13;99744.94;4958928;28;20062;-74
2021/12/26 11:21:35;;;;;;;12.02;4.47;;;;;;;15.93;71.29;99742.00;4958893;28;20026;-73
2021/12/26 11:24:01;;;;;;;10.95;4.65;;;;;;;15.92;71.38;99751.59;4958794;28;20038;-73
2021/12/26 11:26:29;;;;;;;13.48;4.20;;;;;;;15.83;71.24;99740.06;4958820;28;20031;-73
2021/12/26 11:29:03;;;;;;;11.00;4.25;;;;;;;15.84;71.62;99730.44;4958092;28;20148;-73
2021/12/26 11:31:32;;;;;;;6.70;4.82;;;;;;;15.83;71.80;99723.22;4959178;28;20034;-72
2021/12/26 11:34:30;;;;;;;15.07;5.72;;;;;;;16.11;70.34;99723.03;4975907;28;20039;-73
2021/12/26 11:37:00;;;;;;;13.05;4.80;;;;;;;16.26;70.41;99717.34;4958492;28;20035;-73
2021/12/26 11:39:28;;;;;;;11.15;5.15;;;;;;;16.47;69.61;99711.53;4958692;28;20027;-76
2021/12/26 11:42:05;;;;;;;10.85;4.20;;;;;;;16.54;69.32;99705.84;4959097;28;20026;-77
2021/12/26 11:45:05;;;;;;;15.07;5.35;;;;;;;16.70;68.54;99717.34;4958417;28;20031;-73
2021/12/26 11:48:09;;;;;;;15.23;5.72;;;;;;;16.38;67.35;99702.78;4958451;28;20042;-73
2021/12/26 11:50:47;;;;;;;9.25;5.32;;;;;;;16.23;68.02;99699.28;4958418;28;20122;-73
2021/12/26 11:53:24;;;;;;;8.80;4.68;;;;;;;16.19;69.64;99696.53;4957917;28;20058;-74